createdAt,value
2023-01-13T00:00:30.972Z,9.00
2023-01-13T00:02:58.958Z,9.00
2023-01-13T00:05:27.612Z,8.90
2023-01-13T00:07:55.533Z,8.90
2023-01-13T00:10:23.630Z,8.90
2023-01-13T00:12:53.508Z,8.90
2023-01-13T00:15:21.487Z,8.90
2023-01-13T00:17:49.799Z,8.90
2023-01-13T00:20:18.213Z,8.80
2023-01-13T00:22:46.165Z,8.80
2023-01-13T00:25:14.202Z,8.80
2023-01-13T00:27:42.220Z,8.80
2023-01-13T00:30:12.891Z,8.70
2023-01-13T00:32:40.843Z,8.70
2023-01-13T00:35:09.460Z,8.70
2023-01-13T00:37:38.650Z,8.70
2023-01-13T00:40:07.760Z,8.70
2023-01-13T00:42:53.363Z,8.70
2023-01-13T00:45:22.700Z,8.70
2023-01-13T00:47:50.621Z,8.70
2023-01-13T00:50:18.756Z,8.70
2023-01-13T00:52:46.651Z,8.70
2023-01-13T00:55:14.660Z,8.70
2023-01-13T00:57:42.696Z,8.70
2023-01-13T01:00:12.004Z,8.70
2023-01-13T01:02:41.330Z,8.70
2023-01-13T01:05:10.091Z,8.70
2023-01-13T01:07:38.046Z,8.70
2023-01-13T01:10:06.872Z,8.70
2023-01-13T01:12:36.037Z,8.70
2023-01-13T01:15:06.031Z,8.70
2023-01-13T01:17:34.040Z,8.70
2023-01-13T01:20:03.676Z,8.70
2023-01-13T01:22:31.887Z,8.60
2023-01-13T01:24:59.886Z,8.60
2023-01-13T01:27:27.811Z,8.60
2023-01-13T01:29:55.818Z,8.60
2023-01-13T01:32:23.810Z,8.60
2023-01-13T01:34:52.205Z,8.60
2023-01-13T01:37:21.494Z,8.60
2023-01-13T01:39:49.544Z,8.60
2023-01-13T01:42:33.271Z,8.60
2023-01-13T01:45:04.252Z,8.60
2023-01-13T01:47:33.362Z,8.60
2023-01-13T01:50:03.788Z,8.60
2023-01-13T01:52:37.125Z,8.60
2023-01-13T01:55:09.882Z,8.60
2023-01-13T01:57:43.696Z,8.50
2023-01-13T02:00:12.962Z,8.50
2023-01-13T02:02:42.270Z,8.50
2023-01-13T02:05:10.729Z,8.50
2023-01-13T02:07:42.691Z,8.50
2023-01-13T02:10:14.277Z,8.50
2023-01-13T02:12:44.324Z,8.50
2023-01-13T02:15:14.791Z,8.50
2023-01-13T02:18:06.705Z,8.50
2023-01-13T02:20:52.180Z,8.40
2023-01-13T02:24:10.581Z,8.50
2023-01-13T02:27:08.772Z,8.40
2023-01-13T02:30:11.162Z,8.50
2023-01-13T02:32:50.788Z,8.50
2023-01-13T02:35:25.347Z,8.40
2023-01-13T02:37:54.350Z,8.40
2023-01-13T02:40:26.703Z,8.40
2023-01-13T02:43:18.391Z,8.40
2023-01-13T02:45:51.995Z,8.40
2023-01-13T02:48:23.834Z,8.40
2023-01-13T02:50:57.250Z,8.40
2023-01-13T02:53:29.739Z,8.40
2023-01-13T02:55:59.951Z,8.40
2023-01-13T02:58:30.564Z,8.40
2023-01-13T03:01:00.003Z,8.40
2023-01-13T03:03:28.008Z,8.40
2023-01-13T03:06:05.947Z,8.40
2023-01-13T03:08:42.783Z,8.40
2023-01-13T03:11:12.708Z,8.40
2023-01-13T03:14:10.854Z,8.40
2023-01-13T03:16:53.426Z,8.40
2023-01-13T03:19:30.852Z,8.40
2023-01-13T03:22:01.779Z,8.40
2023-01-13T03:24:35.396Z,8.40
2023-01-13T03:27:07.842Z,8.40
2023-01-13T03:29:39.724Z,8.40
2023-01-13T03:32:13.511Z,8.40
2023-01-13T03:34:46.872Z,8.40
2023-01-13T03:37:19.569Z,8.40
2023-01-13T03:39:51.528Z,8.30
2023-01-13T03:42:23.644Z,8.30
2023-01-13T03:44:55.268Z,8.40
2023-01-13T03:47:28.702Z,8.30
2023-01-13T03:50:02.906Z,8.30
2023-01-13T03:52:35.509Z,8.30
2023-01-13T03:55:08.681Z,8.30
2023-01-13T03:57:40.998Z,8.30
2023-01-13T04:00:13.448Z,8.30
2023-01-13T04:02:51.521Z,8.30
2023-01-13T04:05:20.223Z,8.30
2023-01-13T04:07:54.313Z,8.30
2023-01-13T04:10:27.009Z,8.30
2023-01-13T04:13:02.708Z,8.30
2023-01-13T04:15:33.958Z,8.30
2023-01-13T04:18:13.485Z,8.30
2023-01-13T04:20:42.339Z,8.30
2023-01-13T04:23:11.319Z,8.30
2023-01-13T04:25:39.239Z,8.20
2023-01-13T04:28:07.624Z,8.20
2023-01-13T04:30:35.618Z,8.20
2023-01-13T04:33:04.116Z,8.20
2023-01-13T04:35:33.953Z,8.20
2023-01-13T04:38:02.500Z,8.20
2023-01-13T04:40:30.477Z,8.20
2023-01-13T04:42:58.353Z,8.20
2023-01-13T04:45:26.289Z,8.20
2023-01-13T04:47:54.225Z,8.20
2023-01-13T04:50:22.700Z,8.20
2023-01-13T04:52:53.850Z,8.20
2023-01-13T04:55:23.917Z,8.20
2023-01-13T04:57:51.879Z,8.20
2023-01-13T05:00:22.308Z,8.20
2023-01-13T05:02:51.061Z,8.20
2023-01-13T05:05:19.367Z,8.20
2023-01-13T05:07:47.424Z,8.20
2023-01-13T05:10:17.213Z,8.20
2023-01-13T05:13:02.694Z,8.20
2023-01-13T05:15:48.270Z,8.20
2023-01-13T05:18:17.035Z,8.20
2023-01-13T05:20:44.951Z,8.20
2023-01-13T05:23:30.384Z,8.20
2023-01-13T05:25:59.625Z,8.20
2023-01-13T05:28:27.587Z,8.10
2023-01-13T05:30:55.518Z,8.10
2023-01-13T05:33:23.401Z,8.10
2023-01-13T05:35:51.299Z,8.10
2023-01-13T05:38:19.263Z,8.10
2023-01-13T05:41:05.068Z,8.10
2023-01-13T05:43:34.930Z,8.10
2023-01-13T05:46:05.532Z,8.10
2023-01-13T05:48:35.542Z,8.10
2023-01-13T05:51:04.929Z,8.10
2023-01-13T05:53:33.576Z,8.10
2023-01-13T05:56:04.482Z,8.10
2023-01-13T05:58:34.046Z,8.10
2023-01-13T06:01:03.328Z,8.10
2023-01-13T06:03:31.420Z,8.10
2023-01-13T06:06:01.752Z,8.10
2023-01-13T06:08:30.288Z,8.10
2023-01-13T06:10:58.686Z,8.10
2023-01-13T06:13:26.656Z,8.10
2023-01-13T06:15:59.009Z,8.10
2023-01-13T06:18:28.440Z,8.10
2023-01-13T06:20:56.402Z,8.10
2023-01-13T06:23:24.766Z,8.10
2023-01-13T06:26:01.838Z,8.10
2023-01-13T06:28:29.787Z,8.10
2023-01-13T06:31:01.763Z,8.10
2023-01-13T06:33:34.154Z,8.10
2023-01-13T06:36:07.587Z,8.10
2023-01-13T06:38:38.348Z,8.10
2023-01-13T06:41:09.137Z,8.10
2023-01-13T06:43:36.344Z,8.10
2023-01-13T06:46:06.377Z,8.10
2023-01-13T06:48:35.167Z,8.10
2023-01-13T06:51:03.583Z,8.10
2023-01-13T06:53:31.934Z,8.10
2023-01-13T06:55:59.817Z,8.10
2023-01-13T06:58:27.707Z,8.10
2023-01-13T07:00:55.684Z,8.10
2023-01-13T07:03:25.004Z,8.10
2023-01-13T07:05:55.006Z,8.10
2023-01-13T07:08:23.284Z,8.20
2023-01-13T07:10:51.496Z,8.20
2023-01-13T07:13:36.921Z,8.20
2023-01-13T07:16:06.670Z,8.20
2023-01-13T07:18:36.789Z,8.20
2023-01-13T07:21:06.739Z,8.20
2023-01-13T07:23:36.811Z,8.20
2023-01-13T07:26:06.038Z,8.20
2023-01-13T07:28:34.724Z,8.20
2023-01-13T07:31:02.901Z,8.20
2023-01-13T07:33:33.123Z,8.20
2023-01-13T07:36:04.239Z,8.20
2023-01-13T07:38:33.674Z,8.20
2023-01-13T07:41:23.111Z,8.20
2023-01-13T07:43:50.654Z,8.20
2023-01-13T07:46:18.907Z,8.20
2023-01-13T07:48:48.534Z,8.20
2023-01-13T07:51:17.758Z,8.20
2023-01-13T07:53:45.622Z,8.20
2023-01-13T07:56:13.624Z,8.20
2023-01-13T07:58:41.620Z,8.30
2023-01-13T08:01:10.467Z,8.30
2023-01-13T08:03:38.607Z,8.30
2023-01-13T08:06:06.861Z,8.30
2023-01-13T08:08:36.226Z,8.30
2023-01-13T08:11:06.965Z,8.30
2023-01-13T08:13:35.096Z,8.30
2023-01-13T08:16:05.061Z,8.30
2023-01-13T08:18:33.949Z,8.30
2023-01-13T08:21:04.454Z,8.30
2023-01-13T08:23:32.516Z,8.30
2023-01-13T08:26:03.199Z,8.30
2023-01-13T08:28:31.347Z,8.30
2023-01-13T08:31:01.374Z,8.30
2023-01-13T08:33:29.793Z,8.40
2023-01-13T08:35:57.958Z,8.40
2023-01-13T08:38:26.179Z,8.30
2023-01-13T08:40:54.307Z,8.30
2023-01-13T08:43:23.574Z,8.30
2023-01-13T08:45:58.339Z,8.30
2023-01-13T08:48:27.314Z,8.30
2023-01-13T08:51:02.001Z,8.30
2023-01-13T08:53:29.880Z,8.30
2023-01-13T08:55:57.749Z,8.30
2023-01-13T08:58:27.263Z,8.30
2023-01-13T09:00:55.310Z,8.30
2023-01-13T09:03:23.247Z,8.30
2023-01-13T09:05:51.197Z,8.30
2023-01-13T09:08:19.177Z,8.30
2023-01-13T09:10:47.091Z,8.30
2023-01-13T09:13:14.730Z,8.30
2023-01-13T09:15:47.318Z,8.30
2023-01-13T09:18:15.513Z,8.30
2023-01-13T09:20:44.537Z,8.30
2023-01-13T09:23:12.465Z,8.30
2023-01-13T09:25:40.748Z,8.30
2023-01-13T09:28:09.228Z,8.30
2023-01-13T09:30:38.926Z,8.30
2023-01-13T09:33:25.523Z,8.30
2023-01-13T09:35:53.640Z,8.30
2023-01-13T09:38:21.659Z,8.30
2023-01-13T09:40:50.762Z,8.30
2023-01-13T09:43:41.726Z,8.30
2023-01-13T09:46:36.153Z,8.30
2023-01-13T09:49:08.007Z,8.30
2023-01-13T09:51:41.808Z,8.30
2023-01-13T09:54:16.511Z,8.30
2023-01-13T09:56:44.943Z,8.30
2023-01-13T09:59:13.640Z,8.30
2023-01-13T10:01:51.700Z,8.30
2023-01-13T10:04:21.178Z,8.40
2023-01-13T10:06:53.003Z,8.40
2023-01-13T10:09:27.991Z,8.40
2023-01-13T10:12:17.467Z,8.40
2023-01-13T10:14:52.705Z,8.40
2023-01-13T10:17:29.748Z,8.40
2023-01-13T10:20:11.776Z,8.40
2023-01-13T10:22:50.284Z,8.50
2023-01-13T10:25:28.569Z,8.50
2023-01-13T10:28:04.256Z,8.50
2023-01-13T10:30:39.073Z,8.50
2023-01-13T10:33:13.060Z,8.50
2023-01-13T10:35:57.929Z,8.50
2023-01-13T10:38:28.181Z,8.50
2023-01-13T10:40:58.493Z,8.50
2023-01-13T10:43:27.733Z,8.50
2023-01-13T10:46:00.460Z,8.60
2023-01-13T10:48:53.022Z,8.60
2023-01-13T10:51:27.804Z,8.60
2023-01-13T10:53:58.971Z,8.60
2023-01-13T10:56:29.101Z,8.60
2023-01-13T10:59:15.564Z,8.60
2023-01-13T11:01:54.684Z,8.60
2023-01-13T11:04:31.655Z,8.60
2023-01-13T11:07:01.620Z,8.60
2023-01-13T11:09:32.624Z,8.60
2023-01-13T11:12:02.930Z,8.60
2023-01-13T11:14:39.557Z,8.60
2023-01-13T11:17:24.520Z,8.60
2023-01-13T11:19:56.217Z,8.60
2023-01-13T11:22:30.747Z,8.70
2023-01-13T11:25:02.399Z,8.70
2023-01-13T11:27:41.803Z,8.70
2023-01-13T11:30:24.429Z,8.70
2023-01-13T11:33:04.917Z,8.70
2023-01-13T11:35:35.817Z,8.70
2023-01-13T11:38:14.499Z,8.80
2023-01-13T11:40:47.222Z,8.80
2023-01-13T11:43:23.450Z,8.80
2023-01-13T11:45:54.723Z,8.80
2023-01-13T11:48:26.932Z,8.80
2023-01-13T11:51:01.085Z,8.80
2023-01-13T11:53:48.868Z,8.80
2023-01-13T11:56:37.014Z,8.80
2023-01-13T11:59:38.024Z,8.90
2023-01-13T12:02:22.876Z,8.90
2023-01-13T12:05:00.436Z,8.90
2023-01-13T12:07:41.108Z,8.90
2023-01-13T12:10:19.000Z,9.00
2023-01-13T12:12:54.698Z,9.00
2023-01-13T12:15:46.269Z,9.00
2023-01-13T12:18:35.336Z,9.00
2023-01-13T12:21:18.771Z,9.00
2023-01-13T12:23:55.356Z,9.00
2023-01-13T12:26:25.557Z,9.00
2023-01-13T12:28:57.290Z,9.10
2023-01-13T12:31:27.769Z,9.10
2023-01-13T12:34:08.835Z,9.10
2023-01-13T12:36:49.220Z,9.10
2023-01-13T12:39:27.531Z,9.10
2023-01-13T12:42:23.632Z,9.10
2023-01-13T12:45:23.248Z,9.10
2023-01-13T12:47:51.564Z,9.10
2023-01-13T12:50:40.806Z,9.10
2023-01-13T12:53:38.549Z,9.10
2023-01-13T12:56:44.379Z,9.20
2023-01-13T12:59:36.595Z,9.20
2023-01-13T13:02:36.264Z,9.20
2023-01-13T13:05:41.904Z,9.20
2023-01-13T13:08:21.404Z,9.20
2023-01-13T13:11:01.640Z,9.20
2023-01-13T13:13:44.994Z,9.20
2023-01-13T13:17:00.920Z,9.20
2023-01-13T13:19:50.052Z,9.30
2023-01-13T13:22:45.475Z,9.30
2023-01-13T13:25:25.692Z,9.30
2023-01-13T13:28:19.994Z,9.30
2023-01-13T13:31:06.809Z,9.30
2023-01-13T13:33:49.639Z,9.30
2023-01-13T13:36:42.718Z,9.30
2023-01-13T13:39:39.972Z,9.30
2023-01-13T13:42:31.408Z,9.30
2023-01-13T13:45:19.474Z,9.40
2023-01-13T13:47:47.479Z,9.30
2023-01-13T13:50:18.707Z,9.40
2023-01-13T13:52:54.484Z,9.40
2023-01-13T13:55:24.915Z,9.40
2023-01-13T13:57:54.889Z,9.40
2023-01-13T14:00:26.210Z,9.40
2023-01-13T14:02:58.331Z,9.40
2023-01-13T14:05:28.830Z,9.40
2023-01-13T14:08:02.756Z,9.50
2023-01-13T14:10:32.700Z,9.40
2023-01-13T14:13:02.939Z,9.40
2023-01-13T14:15:34.272Z,9.40
2023-01-13T14:18:04.955Z,9.40
2023-01-13T14:20:34.520Z,9.50
2023-01-13T14:23:05.645Z,9.40
2023-01-13T14:25:39.456Z,9.50
2023-01-13T14:28:23.471Z,9.40
2023-01-13T14:30:52.570Z,9.40
2023-01-13T14:33:24.577Z,9.40
2023-01-13T14:36:23.586Z,9.40
2023-01-13T14:39:26.448Z,9.40
2023-01-13T14:41:54.755Z,9.40
2023-01-13T14:44:26.860Z,9.40
2023-01-13T14:46:56.608Z,9.40
2023-01-13T14:49:29.357Z,9.40
2023-01-13T14:52:12.177Z,9.40
2023-01-13T14:54:52.274Z,9.40
2023-01-13T14:57:31.961Z,9.40
2023-01-13T15:00:18.809Z,9.40
2023-01-13T15:02:49.317Z,9.40
2023-01-13T15:05:38.486Z,9.40
2023-01-13T15:08:20.519Z,9.40
2023-01-13T15:10:52.665Z,9.40
2023-01-13T15:13:46.289Z,9.30
2023-01-13T15:16:24.887Z,9.40
2023-01-13T15:18:53.043Z,9.30
2023-01-13T15:21:21.141Z,9.30
2023-01-13T15:23:49.070Z,9.40
2023-01-13T15:26:22.651Z,9.30
2023-01-13T15:28:51.952Z,9.30
2023-01-13T15:31:19.991Z,9.30
2023-01-13T15:33:48.256Z,9.30
2023-01-13T15:36:24.045Z,9.30
2023-01-13T15:38:52.273Z,9.30
2023-01-13T15:41:41.810Z,9.30
2023-01-13T15:44:30.013Z,9.30
2023-01-13T15:46:58.585Z,9.30
2023-01-13T15:49:34.623Z,9.30
2023-01-13T15:52:03.867Z,9.30
2023-01-13T15:54:31.754Z,9.30
2023-01-13T15:57:00.979Z,9.30
2023-01-13T15:59:29.388Z,9.30
2023-01-13T16:01:57.325Z,9.30
2023-01-13T16:04:25.198Z,9.20
2023-01-13T16:06:53.095Z,9.20
2023-01-13T16:09:21.890Z,9.30
2023-01-13T16:11:49.985Z,9.20
2023-01-13T16:14:19.216Z,9.20
2023-01-13T16:16:47.192Z,9.20
2023-01-13T16:19:15.086Z,9.20
2023-01-13T16:21:43.146Z,9.20
2023-01-13T16:24:11.111Z,9.20
2023-01-13T16:26:39.105Z,9.10
2023-01-13T16:29:07.741Z,9.10
2023-01-13T16:31:37.449Z,9.10
2023-01-13T16:34:06.242Z,9.10
2023-01-13T16:36:36.633Z,9.10
2023-01-13T16:39:05.572Z,9.10
2023-01-13T16:41:35.007Z,9.10
2023-01-13T16:44:06.039Z,9.10
2023-01-13T16:46:34.247Z,9.10
2023-01-13T16:49:06.216Z,9.10
2023-01-13T16:51:34.399Z,9.00
2023-01-13T16:54:02.359Z,9.00
2023-01-13T16:56:32.981Z,9.00
2023-01-13T16:59:04.565Z,9.00
2023-01-13T17:01:33.946Z,9.00
2023-01-13T17:04:02.825Z,9.00
2023-01-13T17:06:36.797Z,8.90
2023-01-13T17:09:06.180Z,8.90
2023-01-13T17:11:34.503Z,9.00
2023-01-13T17:14:15.081Z,8.90
2023-01-13T17:16:47.345Z,8.90
2023-01-13T17:19:15.441Z,8.90
2023-01-13T17:21:46.993Z,8.90
2023-01-13T17:24:15.079Z,8.90
2023-01-13T17:26:47.550Z,8.80
2023-01-13T17:29:17.777Z,8.80
2023-01-13T17:31:45.850Z,8.80
2023-01-13T17:34:14.429Z,8.80
2023-01-13T17:36:43.897Z,8.70
2023-01-13T17:39:17.529Z,8.70
2023-01-13T17:41:45.540Z,8.70
2023-01-13T17:44:15.165Z,8.70
2023-01-13T17:46:43.410Z,8.70
2023-01-13T17:49:12.493Z,8.60
2023-01-13T17:51:40.754Z,8.60
2023-01-13T17:54:12.143Z,8.60
2023-01-13T17:56:40.722Z,8.60
2023-01-13T17:59:10.356Z,8.60
2023-01-13T18:01:39.239Z,8.60
2023-01-13T18:04:07.792Z,8.60
2023-01-13T18:06:35.869Z,8.60
2023-01-13T18:09:03.819Z,8.60
2023-01-13T18:11:33.138Z,8.50
2023-01-13T18:14:01.208Z,8.50
2023-01-13T18:16:30.678Z,8.50
2023-01-13T18:19:20.210Z,8.50
2023-01-13T18:22:06.320Z,8.50
2023-01-13T18:24:52.456Z,8.50
2023-01-13T18:27:27.079Z,8.50
2023-01-13T18:29:57.016Z,8.40
2023-01-13T18:32:30.441Z,8.40
2023-01-13T18:35:05.797Z,8.40
2023-01-13T18:37:38.462Z,8.40
2023-01-13T18:40:09.094Z,8.40
2023-01-13T18:42:55.124Z,8.30
2023-01-13T18:45:25.692Z,8.30
2023-01-13T18:47:55.312Z,8.30
2023-01-13T18:50:23.436Z,8.30
2023-01-13T18:52:51.476Z,8.30
2023-01-13T18:55:19.479Z,8.30
2023-01-13T18:57:49.308Z,8.30
2023-01-13T19:00:20.128Z,8.30
2023-01-13T19:02:50.536Z,8.30
2023-01-13T19:05:18.930Z,8.30
2023-01-13T19:07:50.971Z,8.30
2023-01-13T19:10:19.639Z,8.30
2023-01-13T19:12:48.916Z,8.30
2023-01-13T19:15:17.286Z,8.30
2023-01-13T19:17:46.692Z,8.30
2023-01-13T19:20:14.667Z,8.30
2023-01-13T19:22:42.742Z,8.30
2023-01-13T19:25:10.910Z,8.30
2023-01-13T19:27:39.893Z,8.30
2023-01-13T19:30:11.019Z,8.30
2023-01-13T19:32:38.985Z,8.30
2023-01-13T19:35:07.812Z,8.30
2023-01-13T19:37:36.956Z,8.30
2023-01-13T19:40:09.277Z,8.30
2023-01-13T19:42:54.963Z,8.30
2023-01-13T19:45:31.759Z,8.30
2023-01-13T19:48:02.334Z,8.30
2023-01-13T19:50:30.527Z,8.30
2023-01-13T19:52:58.556Z,8.30
2023-01-13T19:55:26.557Z,8.30
2023-01-13T19:57:54.502Z,8.30
2023-01-13T20:00:24.097Z,8.30
2023-01-13T20:02:53.182Z,8.30
2023-01-13T20:05:25.737Z,8.30
2023-01-13T20:07:54.368Z,8.30
2023-01-13T20:10:23.999Z,8.30
2023-01-13T20:12:52.120Z,8.20
2023-01-13T20:15:20.196Z,8.20
2023-01-13T20:17:49.590Z,8.20
2023-01-13T20:20:18.601Z,8.20
2023-01-13T20:22:46.615Z,8.20
2023-01-13T20:25:16.986Z,8.30
2023-01-13T20:27:45.212Z,8.20
2023-01-13T20:30:14.499Z,8.20
2023-01-13T20:32:42.920Z,8.20
2023-01-13T20:35:12.642Z,8.20
2023-01-13T20:37:41.896Z,8.20
2023-01-13T20:40:13.985Z,8.20
2023-01-13T20:42:44.865Z,8.20
2023-01-13T20:45:17.097Z,8.20
2023-01-13T20:47:46.160Z,8.20
2023-01-13T20:50:16.415Z,8.20
2023-01-13T20:52:44.788Z,8.20
2023-01-13T20:55:13.058Z,8.20
2023-01-13T20:57:41.337Z,8.20
2023-01-13T21:00:11.357Z,8.20
2023-01-13T21:02:41.488Z,8.20
2023-01-13T21:05:10.127Z,8.20
2023-01-13T21:07:39.461Z,8.20
2023-01-13T21:10:11.314Z,8.20
2023-01-13T21:12:56.944Z,8.20
2023-01-13T21:15:25.895Z,8.20
2023-01-13T21:18:11.616Z,8.20
2023-01-13T21:20:40.409Z,8.20
2023-01-13T21:23:10.903Z,8.20
2023-01-13T21:25:40.093Z,8.20
2023-01-13T21:28:11.017Z,8.20
2023-01-13T21:30:39.542Z,8.20
2023-01-13T21:33:07.733Z,8.20
2023-01-13T21:35:38.896Z,8.20
2023-01-13T21:38:06.867Z,8.20
2023-01-13T21:40:36.231Z,8.20
2023-01-13T21:43:21.727Z,8.20
2023-01-13T21:46:07.304Z,8.20
2023-01-13T21:48:35.368Z,8.20
2023-01-13T21:51:03.346Z,8.20
2023-01-13T21:53:31.372Z,8.20
2023-01-13T21:56:00.720Z,8.20
2023-01-13T21:58:28.698Z,8.20
2023-01-13T22:00:56.829Z,8.20
2023-01-13T22:03:24.794Z,8.20
2023-01-13T22:05:56.574Z,8.20
2023-01-13T22:08:24.550Z,8.20
2023-01-13T22:10:57.985Z,8.20
2023-01-13T22:13:47.082Z,8.20
2023-01-13T22:16:15.948Z,8.20
2023-01-13T22:18:43.957Z,8.20
2023-01-13T22:21:11.957Z,8.20
2023-01-13T22:23:39.981Z,8.20
2023-01-13T22:26:09.472Z,8.20
2023-01-13T22:28:42.873Z,8.20
2023-01-13T22:31:12.260Z,8.20
2023-01-13T22:33:41.162Z,8.20
2023-01-13T22:36:09.997Z,8.20
2023-01-13T22:38:37.949Z,8.20
2023-01-13T22:41:07.763Z,8.20
2023-01-13T22:43:36.730Z,8.20
2023-01-13T22:46:08.197Z,8.20
2023-01-13T22:48:36.721Z,8.20
2023-01-13T22:51:09.958Z,8.20
2023-01-13T22:53:38.437Z,8.20
2023-01-13T22:56:07.237Z,8.20
2023-01-13T22:58:35.230Z,8.20
2023-01-13T23:01:12.101Z,8.20
2023-01-13T23:03:40.777Z,8.20
2023-01-13T23:06:08.866Z,8.20
2023-01-13T23:08:37.431Z,8.20
2023-01-13T23:11:07.124Z,8.20
2023-01-13T23:13:35.662Z,8.20
2023-01-13T23:16:04.666Z,8.20
2023-01-13T23:18:34.766Z,8.20
2023-01-13T23:21:07.160Z,8.20
2023-01-13T23:23:35.677Z,8.20
2023-01-13T23:26:04.915Z,8.20
2023-01-13T23:28:34.427Z,8.20
2023-01-13T23:31:07.175Z,8.20
2023-01-13T23:33:37.705Z,8.20
2023-01-13T23:36:07.665Z,8.20
2023-01-13T23:38:35.830Z,8.20
2023-01-13T23:41:07.170Z,8.10
2023-01-13T23:43:35.206Z,8.10
2023-01-13T23:46:04.649Z,8.10
2023-01-13T23:48:33.403Z,8.10
2023-01-13T23:51:04.777Z,8.10
2023-01-13T23:53:35.220Z,8.10
2023-01-13T23:56:05.096Z,8.10
2023-01-13T23:58:33.329Z,8.10
